Time;durP1;ratioP1;P1;durP2;ratioP2;P2;SDS_P1;SDS_P2;PMS_P1;PMS_P2;Temp;Humidity;BMP_temperature;BMP_pressure;BME280_temperature;BME280_humidity;BME280_pressure;Samples;Min_cycle;Max_cycle;Signal;HPM_P1;HPM_P2
2022/12/09 00:01:24;;;;;;;;;;;1.70;99.90;;;;;;5041800;28;20299;-78
2022/12/09 00:03:50;;;;;;;;;;;1.70;99.90;;;;;;5053750;28;19927;-78
2022/12/09 00:06:20;;;;;;;;;;;1.60;99.90;;;;;;5013297;28;19935;-78
2022/12/09 00:08:46;;;;;;;;;;;1.60;99.90;;;;;;5043540;28;19964;-78
2022/12/09 00:11:11;;;;;;;;;;;2.00;99.90;;;;;;5047445;28;20372;-79
2022/12/09 00:13:37;;;;;;;;;;;1.60;99.90;;;;;;5032217;28;20007;-79
2022/12/09 00:16:07;;;;;;;;;;;1.60;99.90;;;;;;5050334;28;19920;-78
2022/12/09 00:18:33;;;;;;;;;;;1.60;99.90;;;;;;5040797;28;19965;-79
2022/12/09 00:20:58;;;;;;;;;;;3.50;99.90;;;;;;5030057;28;20179;-79
2022/12/09 00:23:24;;;;;;;;;;;1.60;99.90;;;;;;5051825;28;20402;-78
2022/12/09 00:25:49;;;;;;;;;;;1.90;99.90;;;;;;5045234;28;19925;-78
2022/12/09 00:28:15;;;;;;;;;;;1.60;99.90;;;;;;5038856;28;20044;-79
2022/12/09 00:30:41;;;;;;;;;;;3.40;99.90;;;;;;5051510;28;19920;-79
2022/12/09 00:33:06;;;;;;;;;;;1.60;99.90;;;;;;5040794;28;20401;-79
2022/12/09 00:35:32;;;;;;;;;;;1.60;99.90;;;;;;5036883;28;19929;-78
2022/12/09 00:37:57;;;;;;;;;;;1.60;99.90;;;;;;5055300;28;20331;-79
2022/12/09 00:40:23;;;;;;;;;;;1.60;99.90;;;;;;5035913;28;19928;-78
2022/12/09 00:42:48;;;;;;;;;;;1.60;99.90;;;;;;5036756;28;20399;-78
2022/12/09 00:45:14;;;;;;;;;;;1.50;99.90;;;;;;5040729;28;19932;-78
2022/12/09 00:47:39;;;;;;;;;;;1.90;99.90;;;;;;5035896;28;19927;-78
2022/12/09 00:50:05;;;;;;;;;;;1.50;99.90;;;;;;5034113;28;20052;-78
2022/12/09 00:52:31;;;;;;;;;;;1.50;99.90;;;;;;5039547;28;19925;-78
2022/12/09 00:54:56;;;;;;;;;;;2.10;99.90;;;;;;5035046;28;19932;-78
2022/12/09 00:57:22;;;;;;;;;;;1.50;99.90;;;;;;5054820;28;19921;-79
2022/12/09 00:59:47;;;;;;;;;;;1.50;99.90;;;;;;5044671;28;19983;-78
2022/12/09 01:02:13;;;;;;;;;;;2.00;99.90;;;;;;5034261;28;19929;-78
2022/12/09 01:04:38;;;;;;;;;;;1.50;99.90;;;;;;5040171;28;19925;-78
2022/12/09 01:07:04;;;;;;;;;;;1.50;99.90;;;;;;5035774;28;19927;-78
2022/12/09 01:09:32;;;;;;;;;;;1.50;99.90;;;;;;5039364;28;19924;-78
2022/12/09 01:11:57;;;;;;;;;;;2.70;99.90;;;;;;5054266;28;20020;-78
2022/12/09 01:14:23;;;;;;;;;;;1.50;99.90;;;;;;5056622;28;20015;-79
2022/12/09 01:16:48;;;;;;;;;;;1.50;99.90;;;;;;5024792;28;20232;-78
2022/12/09 01:19:15;;;;;;;;;;;1.50;99.90;;;;;;5034931;28;19921;-78
2022/12/09 01:21:40;;;;;;;;;;;2.20;99.90;;;;;;5051148;28;20401;-78
2022/12/09 01:24:09;;;;;;;;;;;2.30;99.90;;;;;;5018669;28;19928;-79
2022/12/09 01:26:35;;;;;;;;;;;1.40;99.90;;;;;;5047476;28;19933;-78
2022/12/09 01:29:01;;;;;;;;;;;1.50;99.90;;;;;;5049906;28;20308;-78
2022/12/09 01:31:26;;;;;;;;;;;2.00;99.90;;;;;;5053823;28;19996;-78
2022/12/09 01:33:53;;;;;;;;;;;1.40;99.90;;;;;;5035815;28;20374;-78
2022/12/09 01:36:20;;;;;;;;;;;1.40;99.90;;;;;;5056682;28;19925;-78
2022/12/09 01:38:46;;;;;;;;;;;2.10;99.90;;;;;;5056845;28;20385;-79
2022/12/09 01:41:12;;;;;;;;;;;1.60;99.90;;;;;;5042426;28;19928;-78
2022/12/09 01:43:38;;;;;;;;;;;2.70;99.90;;;;;;5050699;28;19924;-79
2022/12/09 01:46:04;;;;;;;;;;;1.30;99.90;;;;;;5053416;28;19920;-78
2022/12/09 01:48:31;;;;;;;;;;;1.20;99.90;;;;;;5051358;28;19925;-78
2022/12/09 01:51:01;;;;;;;;;;;1.20;99.90;;;;;;5053326;28;20370;-78
2022/12/09 01:53:34;;;;;;;;;;;1.20;99.90;;;;;;5039044;28;19929;-79
2022/12/09 01:56:03;;;;;;;;;;;1.10;99.90;;;;;;5056122;28;19935;-78
2022/12/09 01:58:29;;;;;;;;;;;1.10;99.90;;;;;;5043769;28;19920;-79
2022/12/09 02:00:54;;;;;;;;;;;1.00;99.90;;;;;;5043710;28;19951;-79
2022/12/09 02:03:20;;;;;;;;;;;2.40;99.90;;;;;;5042702;28;19927;-78
2022/12/09 02:05:46;;;;;;;;;;;1.00;99.90;;;;;;5054435;28;20019;-78
2022/12/09 02:08:13;;;;;;;;;;;1.00;99.90;;;;;;5052012;28;19955;-78
2022/12/09 02:10:42;;;;;;;;;;;1.90;99.90;;;;;;5050540;28;19966;-78
2022/12/09 02:13:17;;;;;;;;;;;1.00;99.90;;;;;;5037265;28;20745;-79
2022/12/09 02:15:46;;;;;;;;;;;1.70;99.90;;;;;;5042292;28;20371;-78
2022/12/09 02:18:21;;;;;;;;;;;1.80;99.90;;;;;;5053805;28;20405;-78
2022/12/09 02:20:52;;;;;;;;;;;0.90;99.90;;;;;;5033411;28;19955;-79
2022/12/09 02:23:18;;;;;;;;;;;2.80;99.90;;;;;;5031290;28;19966;-78
2022/12/09 02:25:44;;;;;;;;;;;1.10;99.90;;;;;;5035802;28;19924;-78
2022/12/09 02:28:09;;;;;;;;;;;0.90;99.90;;;;;;5051028;28;20375;-79
2022/12/09 02:30:49;;;;;;;;;;;0.90;99.90;;;;;;5037935;28;19972;-79
2022/12/09 02:33:17;;;;;;;;;;;1.00;99.90;;;;;;5051905;28;19959;-78
2022/12/09 02:35:52;;;;;;;;;;;0.90;99.90;;;;;;5034292;28;20023;-78
2022/12/09 02:38:25;;;;;;;;;;;0.90;99.90;;;;;;5059135;28;19943;-78
2022/12/09 02:40:57;;;;;;;;;;;1.00;99.90;;;;;;5045813;28;20386;-79
2022/12/09 02:43:25;;;;;;;;;;;1.00;99.90;;;;;;5029518;28;20032;-78
2022/12/09 02:45:52;;;;;;;;;;;2.20;99.90;;;;;;5050162;28;19920;-79
2022/12/09 02:48:20;;;;;;;;;;;2.20;99.90;;;;;;5034532;28;19928;-78
2022/12/09 02:50:48;;;;;;;;;;;1.00;99.90;;;;;;5052756;28;20072;-78
2022/12/09 02:53:14;;;;;;;;;;;1.00;99.90;;;;;;5035571;28;19928;-78
2022/12/09 02:55:42;;;;;;;;;;;1.00;99.90;;;;;;5036970;28;19921;-78
2022/12/09 02:58:07;;;;;;;;;;;1.00;99.90;;;;;;5037362;28;20717;-77
2022/12/09 03:00:33;;;;;;;;;;;1.00;99.90;;;;;;5048471;28;19985;-79
2022/12/09 03:03:00;;;;;;;;;;;1.60;99.90;;;;;;5034812;28;19964;-79
2022/12/09 03:05:35;;;;;;;;;;;1.00;99.90;;;;;;5037803;28;19921;-78
2022/12/09 03:08:09;;;;;;;;;;;1.00;99.90;;;;;;5051594;28;19948;-78
2022/12/09 03:10:41;;;;;;;;;;;1.00;99.90;;;;;;5054196;28;20435;-79
2022/12/09 03:13:33;;;;;;;;;;;1.00;99.90;;;;;;5034180;28;19971;-78
2022/12/09 03:16:04;;;;;;;;;;;0.90;99.90;;;;;;5033921;28;19928;-78
2022/12/09 03:18:30;;;;;;;;;;;0.80;99.90;;;;;;5051444;28;20015;-78
2022/12/09 03:20:56;;;;;;;;;;;0.80;99.90;;;;;;5038019;28;19921;-78
2022/12/09 03:23:24;;;;;;;;;;;0.80;99.90;;;;;;5024412;28;19920;-78
2022/12/09 03:25:51;;;;;;;;;;;1.50;99.90;;;;;;5042341;28;20002;-78
2022/12/09 03:28:37;;;;;;;;;;;0.70;99.90;;;;;;5038057;28;19975;-79
2022/12/09 03:31:04;;;;;;;;;;;0.70;99.90;;;;;;5055141;28;20428;-79
2022/12/09 03:33:31;;;;;;;;;;;0.60;99.90;;;;;;5048833;28;20802;-79
2022/12/09 03:35:59;;;;;;;;;;;0.60;99.90;;;;;;5044467;28;19924;-78
2022/12/09 03:38:27;;;;;;;;;;;0.50;99.90;;;;;;5032239;28;20459;-78
2022/12/09 03:40:57;;;;;;;;;;;1.10;99.90;;;;;;5042814;28;19920;-79
2022/12/09 03:43:27;;;;;;;;;;;0.50;99.90;;;;;;5040123;28;19951;-78
2022/12/09 03:45:54;;;;;;;;;;;0.40;99.90;;;;;;5032105;28;19921;-79
2022/12/09 03:48:20;;;;;;;;;;;0.40;99.90;;;;;;5045202;28;20286;-79
2022/12/09 03:50:55;;;;;;;;;;;0.40;99.90;;;;;;5028236;28;19920;-79
2022/12/09 03:53:24;;;;;;;;;;;0.40;99.90;;;;;;5051705;28;19932;-79
2022/12/09 03:55:53;;;;;;;;;;;0.70;99.90;;;;;;5060823;28;19920;-78
2022/12/09 03:58:19;;;;;;;;;;;0.70;99.90;;;;;;5054515;28;19974;-78
2022/12/09 04:00:45;;;;;;;;;;;0.40;99.90;;;;;;5039875;28;20281;-78
2022/12/09 04:03:12;;;;;;;;;;;0.40;99.90;;;;;;5036299;28;19921;-78
2022/12/09 04:05:37;;;;;;;;;;;0.40;99.90;;;;;;5036308;28;19925;-78
2022/12/09 04:08:03;;;;;;;;;;;0.40;99.90;;;;;;5037966;28;19921;-78
2022/12/09 04:10:29;;;;;;;;;;;0.30;99.90;;;;;;5058392;28;19932;-78
2022/12/09 04:12:54;;;;;;;;;;;0.40;99.90;;;;;;5052774;28;20015;-78
2022/12/09 04:15:20;;;;;;;;;;;0.30;99.90;;;;;;5023674;28;19932;-78
2022/12/09 04:17:45;;;;;;;;;;;0.30;99.90;;;;;;5058003;28;20613;-79
2022/12/09 04:20:11;;;;;;;;;;;0.30;99.90;;;;;;5040652;28;20062;-77
2022/12/09 04:22:37;;;;;;;;;;;0.20;99.90;;;;;;5037419;28;20451;-78
2022/12/09 04:25:02;;;;;;;;;;;0.20;99.90;;;;;;5056319;28;19955;-78
2022/12/09 04:27:28;;;;;;;;;;;0.20;99.90;;;;;;5049640;28;19928;-78
2022/12/09 04:29:53;;;;;;;;;;;0.50;99.90;;;;;;5038281;28;19925;-79
2022/12/09 04:32:19;;;;;;;;;;;0.50;99.90;;;;;;5031418;28;19968;-78
2022/12/09 04:34:45;;;;;;;;;;;0.20;99.90;;;;;;5054791;28;19925;-78
2022/12/09 04:37:11;;;;;;;;;;;0.20;99.90;;;;;;5036421;28;19921;-78
2022/12/09 04:39:37;;;;;;;;;;;0.20;99.90;;;;;;5051593;28;19921;-78
2022/12/09 04:42:03;;;;;;;;;;;0.20;99.90;;;;;;5051887;28;19932;-78
2022/12/09 04:44:28;;;;;;;;;;;0.20;99.90;;;;;;5055812;28;19929;-78
2022/12/09 04:46:54;;;;;;;;;;;0.20;99.90;;;;;;5055216;28;19939;-79
2022/12/09 04:49:19;;;;;;;;;;;0.50;99.90;;;;;;5040847;28;20017;-78
2022/12/09 04:51:45;;;;;;;;;;;0.30;99.90;;;;;;5039840;28;19960;-77
2022/12/09 04:54:14;;;;;;;;;;;0.80;99.90;;;;;;5044295;28;20029;-78
2022/12/09 04:56:39;;;;;;;;;;;0.20;99.90;;;;;;5034047;28;20063;-79
2022/12/09 04:59:05;;;;;;;;;;;0.20;99.90;;;;;;5041074;28;20488;-78
2022/12/09 05:01:31;;;;;;;;;;;0.60;99.90;;;;;;5033046;28;19920;-78
2022/12/09 05:03:56;;;;;;;;;;;0.20;99.90;;;;;;5037466;28;19939;-78
2022/12/09 05:06:22;;;;;;;;;;;0.20;99.90;;;;;;5026213;28;19976;-78
2022/12/09 05:08:48;;;;;;;;;;;0.30;99.90;;;;;;5053995;28;19920;-79
2022/12/09 05:11:14;;;;;;;;;;;0.60;99.90;;;;;;5051992;28;19931;-78
2022/12/09 05:13:40;;;;;;;;;;;0.10;99.90;;;;;;5061312;28;19933;-78
2022/12/09 05:16:07;;;;;;;;;;;0.10;99.90;;;;;;5040563;28;19921;-77
2022/12/09 05:18:33;;;;;;;;;;;0.10;99.90;;;;;;5055560;28;19988;-77
2022/12/09 05:20:58;;;;;;;;;;;0.10;99.90;;;;;;5037266;28;19965;-78
2022/12/09 05:23:24;;;;;;;;;;;0.30;99.90;;;;;;5053785;28;20643;-78
2022/12/09 05:25:50;;;;;;;;;;;0.10;99.90;;;;;;5037359;28;19928;-78
2022/12/09 05:28:16;;;;;;;;;;;0.10;99.90;;;;;;5050129;28;19929;-78
2022/12/09 05:30:41;;;;;;;;;;;0.80;99.90;;;;;;5054592;28;20015;-78
2022/12/09 05:33:07;;;;;;;;;;;0.00;99.90;;;;;;5039657;28;19937;-79
2022/12/09 05:35:32;;;;;;;;;;;0.90;99.90;;;;;;5045638;28;19931;-75
2022/12/09 05:37:58;;;;;;;;;;;0.40;99.90;;;;;;5041810;28;19964;-77
2022/12/09 05:40:24;;;;;;;;;;;0.00;99.90;;;;;;5058066;28;19950;-77
2022/12/09 05:42:49;;;;;;;;;;;0.00;99.90;;;;;;5031667;28;20412;-77
2022/12/09 05:45:15;;;;;;;;;;;0.00;99.90;;;;;;5034292;28;20057;-77
2022/12/09 05:47:40;;;;;;;;;;;0.00;99.90;;;;;;5032188;28;19928;-77
2022/12/09 05:50:06;;;;;;;;;;;0.70;99.90;;;;;;5034905;28;19927;-78
2022/12/09 05:52:35;;;;;;;;;;;0.00;99.90;;;;;;5039304;28;20238;-76
2022/12/09 05:55:05;;;;;;;;;;;0.00;99.90;;;;;;5034644;28;21396;-76
2022/12/09 05:57:32;;;;;;;;;;;0.00;99.90;;;;;;5016506;28;20829;-76
2022/12/09 05:59:57;;;;;;;;;;;0.00;99.90;;;;;;5046778;28;19920;-77
2022/12/09 06:02:23;;;;;;;;;;;0.50;99.90;;;;;;5017469;28;20287;-76
2022/12/09 06:04:49;;;;;;;;;;;-0.10;99.90;;;;;;5030458;28;19935;-76
2022/12/09 06:07:14;;;;;;;;;;;-0.10;99.90;;;;;;5053592;28;20298;-75
2022/12/09 06:09:40;;;;;;;;;;;-0.20;99.90;;;;;;5054311;28;19920;-77
2022/12/09 06:12:05;;;;;;;;;;;0.10;99.90;;;;;;5045869;28;19921;-77
2022/12/09 06:14:31;;;;;;;;;;;-0.30;99.90;;;;;;5039518;28;20027;-77
2022/12/09 06:16:57;;;;;;;;;;;-0.20;99.90;;;;;;5040594;28;19929;-77
2022/12/09 06:19:22;;;;;;;;;;;0.20;99.90;;;;;;5054838;28;19921;-76
2022/12/09 06:21:48;;;;;;;;;;;0.00;99.90;;;;;;5035040;28;20297;-77
2022/12/09 06:24:13;;;;;;;;;;;0.10;99.90;;;;;;5053385;28;19926;-77
2022/12/09 06:26:39;;;;;;;;;;;-0.40;99.90;;;;;;5040835;28;19915;-78
2022/12/09 06:29:04;;;;;;;;;;;-0.40;99.90;;;;;;5021384;28;19933;-78
2022/12/09 06:31:30;;;;;;;;;;;-0.40;99.90;;;;;;5019985;28;20007;-77
2022/12/09 06:33:56;;;;;;;;;;;-0.50;99.90;;;;;;5037199;28;19931;-77
2022/12/09 06:36:21;;;;;;;;;;;-0.50;99.90;;;;;;5034898;28;20059;-78
2022/12/09 06:38:47;;;;;;;;;;;-0.60;99.90;;;;;;5049052;28;20384;-78
2022/12/09 06:41:13;;;;;;;;;;;-0.60;99.90;;;;;;5046641;28;19982;-78
2022/12/09 06:43:39;;;;;;;;;;;-0.60;99.90;;;;;;5031427;28;19920;-77
2022/12/09 06:46:13;;;;;;;;;;;-0.40;99.90;;;;;;5046820;28;19924;-77
2022/12/09 06:48:38;;;;;;;;;;;-0.70;99.90;;;;;;5049511;28;19974;-77
2022/12/09 06:51:04;;;;;;;;;;;-0.80;99.90;;;;;;5022614;28;19929;-78
2022/12/09 06:53:30;;;;;;;;;;;-0.80;99.90;;;;;;5033427;28;19939;-78
2022/12/09 06:55:59;;;;;;;;;;;0.30;99.90;;;;;;5051802;28;19936;-78
2022/12/09 06:58:25;;;;;;;;;;;-0.90;99.90;;;;;;5031773;28;19947;-78
2022/12/09 07:00:50;;;;;;;;;;;-1.00;99.90;;;;;;5051781;28;20381;-78
2022/12/09 07:03:16;;;;;;;;;;;0.80;99.90;;;;;;5046965;28;20073;-77
2022/12/09 07:05:41;;;;;;;;;;;-1.10;99.90;;;;;;5031390;28;19951;-78
2022/12/09 07:08:07;;;;;;;;;;;-1.20;99.90;;;;;;5047287;28;19928;-78
2022/12/09 07:10:32;;;;;;;;;;;-1.20;99.90;;;;;;5048091;28;20000;-78
2022/12/09 07:12:58;;;;;;;;;;;-0.30;99.90;;;;;;5032171;28;20305;-78
2022/12/09 07:15:23;;;;;;;;;;;-1.30;99.90;;;;;;5032959;28;19977;-78
2022/12/09 07:17:49;;;;;;;;;;;-1.30;99.90;;;;;;5030006;28;19956;-78
2022/12/09 07:20:16;;;;;;;;;;;-1.30;99.90;;;;;;5030848;28;20003;-78
2022/12/09 07:22:41;;;;;;;;;;;-1.40;99.90;;;;;;5033477;28;19961;-77
2022/12/09 07:25:07;;;;;;;;;;;-1.40;99.90;;;;;;5032183;28;19928;-77
2022/12/09 07:27:33;;;;;;;;;;;-1.40;99.90;;;;;;5034784;28;19924;-78
2022/12/09 07:29:58;;;;;;;;;;;-1.40;99.90;;;;;;5054466;28;20424;-78
2022/12/09 07:32:24;;;;;;;;;;;-1.40;99.90;;;;;;5020222;28;19928;-79
2022/12/09 07:34:50;;;;;;;;;;;-1.40;99.90;;;;;;5027011;28;20452;-79
2022/12/09 07:37:15;;;;;;;;;;;-1.40;99.90;;;;;;5034604;28;19925;-78
2022/12/09 07:39:41;;;;;;;;;;;0.60;99.90;;;;;;5033586;28;19928;-78
2022/12/09 07:42:06;;;;;;;;;;;-1.40;99.90;;;;;;5033853;28;19920;-78
2022/12/09 07:44:32;;;;;;;;;;;-1.40;99.90;;;;;;5041479;28;19921;-78
2022/12/09 07:46:58;;;;;;;;;;;-1.40;99.90;;;;;;5035172;28;20329;-78
2022/12/09 07:49:23;;;;;;;;;;;-1.40;99.90;;;;;;5040376;28;20016;-78
2022/12/09 07:51:49;;;;;;;;;;;-1.40;99.90;;;;;;5052770;28;20003;-78
2022/12/09 07:54:17;;;;;;;;;;;-1.40;99.90;;;;;;5053926;28;19939;-77
2022/12/09 07:56:43;;;;;;;;;;;-0.20;99.90;;;;;;5050797;28;21172;-78
2022/12/09 07:59:09;;;;;;;;;;;-1.30;99.90;;;;;;5019187;28;19959;-80
2022/12/09 08:01:35;;;;;;;;;;;-1.20;99.90;;;;;;5036424;28;19959;-79
2022/12/09 08:04:01;;;;;;;;;;;0.70;99.90;;;;;;5034723;28;20369;-79
2022/12/09 08:06:27;;;;;;;;;;;-1.20;99.90;;;;;;5035425;28;20023;-80
2022/12/09 08:08:53;;;;;;;;;;;-1.30;99.90;;;;;;5036231;28;20394;-80
2022/12/09 08:11:20;;;;;;;;;;;-0.50;99.90;;;;;;5020451;28;19955;-80
2022/12/09 08:13:46;;;;;;;;;;;-1.30;99.90;;;;;;5020371;28;19939;-81
2022/12/09 08:16:13;;;;;;;;;;;-1.30;99.90;;;;;;5034025;28;19924;-80
2022/12/09 08:18:39;;;;;;;;;;;-1.10;99.90;;;;;;5037399;28;19968;-80
2022/12/09 08:21:05;;;;;;;;;;;-1.20;99.90;;;;;;5020541;28;20294;-80
2022/12/09 08:23:31;;;;;;;;;;;-1.10;99.90;;;;;;5038665;28;19920;-79
2022/12/09 08:25:57;;;;;;;;;;;-1.00;99.90;;;;;;5021567;28;19932;-79
2022/12/09 08:28:22;;;;;;;;;;;-0.90;99.90;;;;;;5023206;28;19929;-79
2022/12/09 08:30:48;;;;;;;;;;;-0.40;99.90;;;;;;5018872;28;20681;-80
2022/12/09 08:33:14;;;;;;;;;;;-0.80;99.90;;;;;;5020549;28;19979;-79
2022/12/09 08:35:39;;;;;;;;;;;-0.70;99.90;;;;;;5020167;28;19987;-80
2022/12/09 08:38:05;;;;;;;;;;;0.40;99.90;;;;;;5035679;28;19928;-80
2022/12/09 08:40:31;;;;;;;;;;;0.60;99.90;;;;;;5020842;28;19929;-80
2022/12/09 08:42:56;;;;;;;;;;;-0.50;99.90;;;;;;5016668;28;19931;-80
2022/12/09 08:45:22;;;;;;;;;;;-0.40;99.90;;;;;;5022231;28;19925;-79
2022/12/09 08:47:47;;;;;;;;;;;-0.40;99.90;;;;;;5022593;28;19925;-80
2022/12/09 08:50:13;;;;;;;;;;;-0.30;99.90;;;;;;5020372;28;19980;-79
2022/12/09 08:52:39;;;;;;;;;;;-0.20;99.90;;;;;;4999606;28;20451;-79
2022/12/09 08:55:04;;;;;;;;;;;-0.20;99.90;;;;;;5018037;28;20031;-78
2022/12/09 08:57:30;;;;;;;;;;;-0.10;99.90;;;;;;5033306;28;20336;-79
2022/12/09 08:59:56;;;;;;;;;;;-0.10;99.90;;;;;;5018880;28;19920;-79
2022/12/09 09:02:21;;;;;;;;;;;0.00;99.90;;;;;;5034196;28;19921;-79
2022/12/09 09:04:47;;;;;;;;;;;0.00;99.90;;;;;;5003017;28;19928;-79
2022/12/09 09:07:12;;;;;;;;;;;-0.90;99.90;;;;;;5016381;28;20019;-79
2022/12/09 09:09:38;;;;;;;;;;;0.10;99.90;;;;;;5019261;28;19951;-79
2022/12/09 09:12:04;;;;;;;;;;;0.20;99.90;;;;;;5019253;28;20506;-79
2022/12/09 09:14:30;;;;;;;;;;;0.20;99.90;;;;;;5020253;28;20129;-80
2022/12/09 09:16:55;;;;;;;;;;;0.60;99.90;;;;;;5034669;28;19928;-79
2022/12/09 09:19:24;;;;;;;;;;;1.40;99.90;;;;;;4999907;28;19983;-79
2022/12/09 09:21:49;;;;;;;;;;;0.30;99.90;;;;;;5021186;28;19929;-79
2022/12/09 09:24:16;;;;;;;;;;;0.80;99.90;;;;;;5038890;28;19935;-79
2022/12/09 09:26:42;;;;;;;;;;;0.30;99.90;;;;;;5038716;28;19925;-79
2022/12/09 09:29:09;;;;;;;;;;;0.30;99.90;;;;;;5020844;28;19935;-79
2022/12/09 09:31:35;;;;;;;;;;;0.30;99.90;;;;;;5038590;28;20382;-79
2022/12/09 09:34:00;;;;;;;;;;;1.00;99.90;;;;;;5038760;28;19932;-79
2022/12/09 09:36:26;;;;;;;;;;;0.90;99.90;;;;;;5022787;28;19920;-79
2022/12/09 09:38:53;;;;;;;;;;;0.40;99.90;;;;;;5004932;28;19975;-79
2022/12/09 09:41:37;;;;;;;;;;;0.50;99.90;;;;;;5023497;28;20248;-79
2022/12/09 09:44:03;;;;;;;;;;;0.50;99.90;;;;;;5037283;28;19933;-79
2022/12/09 09:46:41;;;;;;;;;;;0.60;99.90;;;;;;5038347;28;19978;-79
2022/12/09 09:49:09;;;;;;;;;;;0.70;99.90;;;;;;5021222;28;20414;-78
2022/12/09 09:51:35;;;;;;;;;;;1.50;99.90;;;;;;5023056;28;20650;-79
2022/12/09 09:54:00;;;;;;;;;;;0.80;99.90;;;;;;5020763;28;19936;-79
2022/12/09 09:56:26;;;;;;;;;;;0.80;99.90;;;;;;5022579;28;19963;-79
2022/12/09 09:59:13;;;;;;;;;;;0.80;99.90;;;;;;5037406;28;19927;-78
2022/12/09 10:01:38;;;;;;;;;;;0.90;99.90;;;;;;5021710;28;19925;-78
2022/12/09 10:04:19;;;;;;;;;;;2.70;99.90;;;;;;5021512;28;19920;-79
2022/12/09 10:06:51;;;;;;;;;;;0.90;99.90;;;;;;5021953;28;20536;-79
2022/12/09 10:09:21;;;;;;;;;;;0.80;99.90;;;;;;5019768;28;19960;-79
2022/12/09 10:12:02;;;;;;;;;;;0.80;99.90;;;;;;5021922;28;19920;-79
2022/12/09 10:14:33;;;;;;;;;;;0.80;99.90;;;;;;5019974;28;19933;-79
2022/12/09 10:17:08;;;;;;;;;;;0.80;99.90;;;;;;5045113;28;19990;-79
2022/12/09 10:19:35;;;;;;;;;;;0.80;99.90;;;;;;5044807;28;20047;-79
2022/12/09 10:22:21;;;;;;;;;;;0.80;99.90;;;;;;5049082;28;20404;-79
2022/12/09 10:24:48;;;;;;;;;;;0.90;99.90;;;;;;5037121;28;19929;-78
2022/12/09 10:27:20;;;;;;;;;;;0.90;99.90;;;;;;5046897;28;19932;-79
2022/12/09 10:29:54;;;;;;;;;;;0.90;99.90;;;;;;5047481;28;20009;-78
2022/12/09 10:32:20;;;;;;;;;;;1.00;99.90;;;;;;5048504;28;20546;-78
2022/12/09 10:34:46;;;;;;;;;;;1.00;99.90;;;;;;5031823;28;19933;-79
2022/12/09 10:37:23;;;;;;;;;;;0.90;99.90;;;;;;5049346;28;19920;-78
2022/12/09 10:39:51;;;;;;;;;;;0.90;99.90;;;;;;5033492;28;20344;-78
2022/12/09 10:45:05;;;;;;;;;;;1.00;99.90;;;;;;5037571;28;19928;-79
2022/12/09 10:47:30;;;;;;;;;;;0.90;99.90;;;;;;5032170;28;19921;-78
2022/12/09 10:49:58;;;;;;;;;;;0.90;99.90;;;;;;5031313;28;20003;-78
2022/12/09 10:52:26;;;;;;;;;;;0.80;99.90;;;;;;5036749;28;20372;-78
2022/12/09 10:54:52;;;;;;;;;;;0.70;99.90;;;;;;5038391;28;20346;-78
2022/12/09 10:57:18;;;;;;;;;;;0.80;99.90;;;;;;5050818;28;19963;-78
2022/12/09 11:00:07;;;;;;;;;;;2.70;99.90;;;;;;5047992;28;19921;-78
2022/12/09 11:02:33;;;;;;;;;;;0.80;99.90;;;;;;5037663;28;20596;-78
2022/12/09 11:05:17;;;;;;;;;;;0.80;99.90;;;;;;5032177;28;19956;-78
2022/12/09 11:07:46;;;;;;;;;;;0.80;99.90;;;;;;5052016;28;20598;-78
2022/12/09 11:10:16;;;;;;;;;;;0.90;99.90;;;;;;5031739;28;19921;-78
2022/12/09 11:12:42;;;;;;;;;;;0.90;99.90;;;;;;5047173;28;20294;-79
2022/12/09 11:15:11;;;;;;;;;;;1.70;99.90;;;;;;5030315;28;19925;-78
2022/12/09 11:17:38;;;;;;;;;;;1.00;99.90;;;;;;5028541;28;19970;-78
2022/12/09 11:20:04;;;;;;;;;;;1.00;99.90;;;;;;5040834;28;19921;-79
2022/12/09 11:22:39;;;;;;;;;;;1.20;99.90;;;;;;5024628;28;19927;-79
2022/12/09 11:25:10;;;;;;;;;;;1.10;99.90;;;;;;5065274;28;20058;-79
2022/12/09 11:27:41;;;;;;;;;;;1.20;99.90;;;;;;5038285;28;19931;-79
2022/12/09 11:30:14;;;;;;;;;;;1.20;99.90;;;;;;5030802;28;19936;-78
2022/12/09 11:32:59;;;;;;;;;;;1.30;99.90;;;;;;5033432;28;21271;-79
2022/12/09 11:35:31;;;;;;;;;;;1.30;99.90;;;;;;5020615;28;19933;-78
2022/12/09 11:37:57;;;;;;;;;;;2.70;99.90;;;;;;5036050;28;19928;-79
2022/12/09 11:40:24;;;;;;;;;;;1.70;99.90;;;;;;5001348;28;19929;-79
2022/12/09 11:42:50;;;;;;;;;;;1.50;99.90;;;;;;5016933;28;19932;-79
2022/12/09 11:45:18;;;;;;;;;;;1.50;99.90;;;;;;5041084;28;19929;-79
2022/12/09 11:47:45;;;;;;;;;;;1.60;99.90;;;;;;5029248;28;19982;-79
2022/12/09 11:50:16;;;;;;;;;;;1.60;99.90;;;;;;5045829;28;19928;-79
2022/12/09 11:52:42;;;;;;;;;;;1.70;99.90;;;;;;5026124;28;20310;-80
2022/12/09 11:55:20;;;;;;;;;;;2.00;99.90;;;;;;5028088;28;20028;-79
2022/12/09 11:57:48;;;;;;;;;;;1.80;99.90;;;;;;5034868;28;20337;-79
2022/12/09 12:00:17;;;;;;;;;;;1.70;99.90;;;;;;5047247;28;19920;-79
2022/12/09 12:03:01;;;;;;;;;;;1.70;99.90;;;;;;5033497;28;19921;-79
2022/12/09 12:05:31;;;;;;;;;;;1.70;99.90;;;;;;5041630;28;19975;-79
2022/12/09 12:08:19;;;;;;;;;;;1.70;99.90;;;;;;5033941;28;19998;-79
2022/12/09 12:10:46;;;;;;;;;;;1.70;99.90;;;;;;5044730;28;19925;-79
2022/12/09 12:13:41;;;;;;;;;;;3.00;99.90;;;;;;5046911;28;20348;-79
2022/12/09 12:16:10;;;;;;;;;;;1.80;99.90;;;;;;5022277;28;20381;-79
2022/12/09 12:18:48;;;;;;;;;;;1.90;99.90;;;;;;5056068;28;19928;-79
2022/12/09 12:21:17;;;;;;;;;;;1.90;99.90;;;;;;5040773;28;19928;-79
2022/12/09 12:23:56;;;;;;;;;;;1.80;99.90;;;;;;5048462;28;19920;-79
2022/12/09 12:26:24;;;;;;;;;;;1.90;99.90;;;;;;5048084;28;19925;-79
2022/12/09 12:29:10;;;;;;;;;;;1.90;99.90;;;;;;5056079;28;19924;-79
2022/12/09 12:31:54;;;;;;;;;;;1.90;99.90;;;;;;5050589;28;19924;-78
2022/12/09 12:34:26;;;;;;;;;;;1.90;99.90;;;;;;5052341;28;19929;-79
2022/12/09 12:37:10;;;;;;;;;;;1.90;99.90;;;;;;5050311;28;20307;-79
2022/12/09 12:39:45;;;;;;;;;;;1.90;99.90;;;;;;5055310;28;19930;-79
2022/12/09 12:42:21;;;;;;;;;;;1.90;99.90;;;;;;5028343;28;19931;-80
2022/12/09 12:47:51;;;;;;;;;;;1.80;99.90;;;;;;5045971;28;19929;-79
2022/12/09 12:50:29;;;;;;;;;;;1.80;99.90;;;;;;5047889;28;19928;-79
2022/12/09 12:53:04;;;;;;;;;;;1.80;99.90;;;;;;5031879;28;20354;-79
2022/12/09 12:55:32;;;;;;;;;;;1.90;99.90;;;;;;5050895;28;20452;-79
2022/12/09 12:57:58;;;;;;;;;;;1.90;99.90;;;;;;5048363;28;19925;-79
2022/12/09 13:00:26;;;;;;;;;;;1.90;99.90;;;;;;5032032;28;19951;-80
2022/12/09 13:02:51;;;;;;;;;;;1.90;99.90;;;;;;5038178;28;19921;-80
2022/12/09 13:05:22;;;;;;;;;;;2.00;99.90;;;;;;5034069;28;19927;-79
2022/12/09 13:07:50;;;;;;;;;;;2.40;99.90;;;;;;5040427;28;19927;-79
2022/12/09 13:10:35;;;;;;;;;;;2.00;99.90;;;;;;5046792;28;19931;-79
2022/12/09 13:13:03;;;;;;;;;;;2.10;99.90;;;;;;5062547;28;19928;-80
2022/12/09 13:15:33;;;;;;;;;;;2.10;99.90;;;;;;5034244;28;20428;-79
2022/12/09 13:18:14;;;;;;;;;;;2.10;99.90;;;;;;5030117;28;19925;-80
2022/12/09 13:20:43;;;;;;;;;;;2.10;99.90;;;;;;5048410;28;19920;-79
2022/12/09 13:23:20;;;;;;;;;;;2.10;99.90;;;;;;5042637;28;19928;-79
2022/12/09 13:25:55;;;;;;;;;;;2.10;99.90;;;;;;5029919;28;20003;-79
2022/12/09 13:28:25;;;;;;;;;;;2.10;99.90;;;;;;5030082;28;20587;-80
2022/12/09 13:30:55;;;;;;;;;;;0.90;99.90;;;;;;5025860;28;21527;-79
2022/12/09 13:33:21;;;;;;;;;;;2.10;99.90;;;;;;5036946;28;20399;-79
2022/12/09 13:35:55;;;;;;;;;;;2.10;99.90;;;;;;5048897;28;20015;-80
2022/12/09 13:38:26;;;;;;;;;;;2.10;99.90;;;;;;5051654;28;19925;-80
2022/12/09 13:40:52;;;;;;;;;;;2.10;99.90;;;;;;5038203;28;19927;-80
2022/12/09 13:43:22;;;;;;;;;;;2.10;99.90;;;;;;5032036;28;19920;-79
2022/12/09 13:45:50;;;;;;;;;;;2.10;99.90;;;;;;5033420;28;19921;-80
2022/12/09 13:48:15;;;;;;;;;;;2.10;99.90;;;;;;5045509;28;20015;-80
2022/12/09 13:50:42;;;;;;;;;;;2.20;99.90;;;;;;5033742;28;20003;-79
2022/12/09 13:53:20;;;;;;;;;;;2.70;99.90;;;;;;5046943;28;19920;-79
2022/12/09 13:55:48;;;;;;;;;;;2.10;99.90;;;;;;5050017;28;19935;-80
2022/12/09 13:58:19;;;;;;;;;;;2.10;99.90;;;;;;5051969;28;19976;-79
2022/12/09 14:00:57;;;;;;;;;;;2.00;99.90;;;;;;5048960;28;20455;-79
2022/12/09 14:03:28;;;;;;;;;;;2.00;99.90;;;;;;5031294;28;19924;-79
2022/12/09 14:05:55;;;;;;;;;;;2.00;99.90;;;;;;5047872;28;19920;-80
2022/12/09 14:08:22;;;;;;;;;;;2.00;99.90;;;;;;5050052;28;20383;-79
2022/12/09 14:10:49;;;;;;;;;;;1.90;99.90;;;;;;5065207;28;19921;-80
2022/12/09 14:13:30;;;;;;;;;;;2.10;99.90;;;;;;5032367;28;19921;-79
2022/12/09 14:16:14;;;;;;;;;;;1.90;99.90;;;;;;5047142;28;19958;-79
2022/12/09 14:18:40;;;;;;;;;;;1.90;99.90;;;;;;5031144;28;20352;-79
2022/12/09 14:21:18;;;;;;;;;;;1.80;99.90;;;;;;5032366;28;20007;-80
2022/12/09 14:24:02;;;;;;;;;;;1.80;99.90;;;;;;5029657;28;19921;-80
2022/12/09 14:26:38;;;;;;;;;;;1.80;99.90;;;;;;5030789;28;20700;-80
2022/12/09 14:29:04;;;;;;;;;;;1.80;99.90;;;;;;5046879;28;19920;-80
2022/12/09 14:31:56;;;;;;;;;;;1.70;99.90;;;;;;5015692;28;19928;-79
2022/12/09 14:34:31;;;;;;;;;;;1.70;99.90;;;;;;5043067;28;19931;-79
2022/12/09 14:37:20;;;;;;;;;;;1.70;99.90;;;;;;5047029;28;19920;-80
2022/12/09 14:39:49;;;;;;;;;;;1.70;99.90;;;;;;5021545;28;19925;-80
2022/12/09 14:42:25;;;;;;;;;;;2.30;99.90;;;;;;5030372;28;19929;-81